Time;durP1;ratioP1;P1;durP2;ratioP2;P2;SDS_P1;SDS_P2;PMS_P1;PMS_P2;Temp;Humidity;BMP_temperature;BMP_pressure;BME280_temperature;BME280_humidity;BME280_pressure;Samples;Min_cycle;Max_cycle;Signal;HPM_P1;HPM_P2
2023/03/28 00:01:09;;;;;;;3.77;3.47;;;;;;;21.16;33.73;93948.38;6287372;27;111502;-63
2023/03/28 00:04:16;;;;;;;3.60;3.30;;;;;;;21.15;33.62;93957.47;6273326;22;109351;-68
2023/03/28 00:07:22;;;;;;;3.53;3.33;;;;;;;21.11;33.55;93948.56;6225847;27;109654;-69
2023/03/28 00:10:35;;;;;;;3.20;3.00;;;;;;;21.12;33.69;93982.06;6222700;28;109169;-70
2023/03/28 00:13:41;;;;;;;2.97;2.73;;;;;;;21.11;33.58;93989.25;6230587;28;109712;-69
2023/03/28 00:16:49;;;;;;;3.50;3.20;;;;;;;21.12;33.38;93998.00;6235271;28;108769;-69
2023/03/28 00:19:56;;;;;;;2.80;2.57;;;;;;;21.11;33.20;94009.75;6226062;27;109688;-69
2023/03/28 00:23:03;;;;;;;3.93;2.60;;;;;;;21.09;33.10;94018.06;6229142;28;109214;-69
2023/03/28 00:26:13;;;;;;;3.40;3.03;;;;;;;21.10;33.04;94026.81;6216474;28;109474;-68
2023/03/28 00:29:24;;;;;;;3.97;3.00;;;;;;;21.13;33.10;94042.13;6211435;27;109098;-69
2023/03/28 00:32:31;;;;;;;2.50;2.30;;;;;;;21.11;32.96;94057.63;6234885;28;110809;-69
2023/03/28 00:35:36;;;;;;;2.67;2.47;;;;;;;21.08;33.24;94053.75;6232688;28;109107;-68
2023/03/28 00:38:41;;;;;;;2.83;2.63;;;;;;;21.08;32.97;94069.72;6215248;28;109684;-68
2023/03/28 00:41:51;;;;;;;2.20;2.10;;;;;;;21.09;33.14;94078.47;6222409;27;109358;-68
2023/03/28 00:44:58;;;;;;;2.63;2.43;;;;;;;21.16;32.84;94071.53;6236678;28;109339;-69
2023/03/28 00:48:09;;;;;;;2.50;2.30;;;;;;;21.19;32.99;94073.56;6234251;28;108815;-70
2023/03/28 00:51:26;;;;;;;2.53;2.33;;;;;;;21.19;32.96;94078.88;6222918;28;109368;-69
2023/03/28 00:54:38;;;;;;;2.50;2.30;;;;;;;21.19;33.02;94075.44;6208289;28;109194;-70
2023/03/28 00:57:49;;;;;;;2.20;2.10;;;;;;;21.20;32.78;94067.13;6228128;28;110132;-68
2023/03/28 01:01:00;;;;;;;2.20;2.10;;;;;;;21.21;32.90;94089.19;6218733;28;108973;-69
2023/03/28 01:04:10;;;;;;;2.27;2.07;;;;;;;21.18;32.99;94074.66;6215387;28;111032;-69
2023/03/28 01:07:20;;;;;;;2.37;2.17;;;;;;;21.21;33.14;94091.84;6234718;28;109105;-63
2023/03/28 01:10:28;;;;;;;2.20;2.10;;;;;;;21.20;32.97;94087.63;6229631;28;110076;-62
2023/03/28 01:13:41;;;;;;;2.13;2.03;;;;;;;21.21;32.78;94099.84;6225966;28;109144;-62
2023/03/28 01:16:50;;;;;;;2.33;2.23;;;;;;;21.21;32.89;94102.50;6225578;28;110189;-62
2023/03/28 01:20:09;;;;;;;2.93;2.20;;;;;;;21.21;32.81;94091.84;6227528;28;109234;-62
2023/03/28 01:23:50;;;;;;;2.53;2.10;;;;;;;21.20;32.66;94092.97;6236161;28;109030;-62
2023/03/28 01:27:24;;;;;;;2.57;2.37;;;;;;;21.21;33.06;94110.47;6208018;27;109034;-62
2023/03/28 01:31:11;;;;;;;2.30;2.10;;;;;;;21.21;32.62;94111.25;6228324;28;109330;-70
2023/03/28 01:34:39;;;;;;;2.33;2.00;;;;;;;21.21;33.14;94110.47;6202550;28;109077;-70
2023/03/28 01:37:56;;;;;;;2.30;2.10;;;;;;;21.20;32.79;94104.38;6212107;27;108769;-71
2023/03/28 01:41:10;;;;;;;1.90;1.80;;;;;;;21.20;32.81;94104.38;6233779;28;109161;-71
2023/03/28 01:44:23;;;;;;;2.20;2.07;;;;;;;21.20;32.59;94098.28;6239560;28;109193;-72
2023/03/28 01:47:37;;;;;;;2.00;1.80;;;;;;;21.20;32.85;94115.03;6240523;28;109277;-71
2023/03/28 01:50:48;;;;;;;1.97;1.87;;;;;;;21.17;32.62;94114.88;6225733;28;109179;-70
2023/03/28 01:54:02;;;;;;;2.00;1.90;;;;;;;21.19;32.66;94113.47;6226929;28;108990;-70
2023/03/28 01:57:13;;;;;;;1.90;1.80;;;;;;;21.18;32.63;94108.47;6216582;28;109123;-70
2023/03/28 02:00:29;;;;;;;1.70;1.60;;;;;;;21.18;32.58;94095.94;6227996;27;109716;-70
2023/03/28 02:03:41;;;;;;;3.10;2.07;;;;;;;21.18;32.89;94116.44;6233546;28;109315;-72
2023/03/28 02:06:46;;;;;;;2.10;1.90;;;;;;;21.19;32.37;94118.00;6225041;28;109036;-70
2023/03/28 02:09:59;;;;;;;2.10;1.90;;;;;;;21.15;32.49;94104.53;6234568;28;109467;-71
2023/03/28 02:13:12;;;;;;;1.87;1.70;;;;;;;21.17;32.39;94123.66;6231231;27;109749;-70
2023/03/28 02:16:22;;;;;;;1.80;1.70;;;;;;;21.17;32.44;94101.56;6237208;28;108899;-71
2023/03/28 02:19:34;;;;;;;1.83;1.73;;;;;;;21.15;32.21;94098.44;6236338;28;109045;-70
2023/03/28 02:22:48;;;;;;;2.00;1.90;;;;;;;21.16;32.34;94084.03;6234553;27;109873;-69
2023/03/28 02:25:59;;;;;;;2.30;1.80;;;;;;;21.16;32.38;94092.03;6224077;27;108993;-72
2023/03/28 02:29:07;;;;;;;2.00;1.90;;;;;;;21.14;32.40;94086.25;6227801;28;110322;-70
2023/03/28 02:32:15;;;;;;;2.00;1.80;;;;;;;21.15;32.29;94109.88;6237805;27;109250;-70
2023/03/28 02:35:27;;;;;;;1.93;1.83;;;;;;;21.15;32.19;94112.53;6208621;28;109246;-70
2023/03/28 02:38:44;;;;;;;1.77;1.67;;;;;;;21.15;32.37;94112.53;6215090;28;109062;-70
2023/03/28 02:42:09;;;;;;;2.00;1.90;;;;;;;21.14;32.14;94110.19;6219721;28;109272;-71
2023/03/28 02:45:37;;;;;;;1.70;1.60;;;;;;;21.13;32.25;94109.41;6228526;27;108981;-70
2023/03/28 02:49:10;;;;;;;2.20;2.00;;;;;;;21.12;32.32;94129.13;6215240;28;109045;-71
2023/03/28 02:52:33;;;;;;;2.00;1.90;;;;;;;21.14;32.19;94136.78;6235856;28;109066;-70
2023/03/28 02:55:46;;;;;;;2.77;2.57;;;;;;;21.15;32.37;94119.72;6224157;28;109032;-70
2023/03/28 02:58:58;;;;;;;2.10;2.00;;;;;;;21.13;32.01;94109.41;6228927;27;110526;-70
2023/03/28 03:02:06;;;;;;;2.10;2.00;;;;;;;21.12;31.85;94118.50;6233238;28;109049;-70
2023/03/28 03:05:15;;;;;;;2.23;2.07;;;;;;;21.11;32.16;94134.78;6215897;28;109000;-70
2023/03/28 03:08:22;;;;;;;4.80;2.50;;;;;;;21.08;31.61;94122.13;6219629;27;109257;-71
2023/03/28 03:11:31;;;;;;;2.80;2.43;;;;;;;21.04;31.42;94129.94;6230108;27;109276;-71
2023/03/28 03:14:37;;;;;;;2.43;2.23;;;;;;;21.02;31.64;94123.41;6235668;28;109220;-70
2023/03/28 03:17:41;;;;;;;2.47;2.27;;;;;;;21.00;31.60;94130.88;6228449;28;109033;-70
2023/03/28 03:20:49;;;;;;;2.80;2.60;;;;;;;21.02;31.64;94140.13;6221080;27;109010;-70
2023/03/28 03:23:54;;;;;;;2.20;2.10;;;;;;;21.07;31.82;94125.91;6228314;28;108920;-72
2023/03/28 03:27:02;;;;;;;2.70;2.20;;;;;;;21.11;31.84;94145.41;6236077;27;109218;-64
2023/03/28 03:30:12;;;;;;;2.30;2.10;;;;;;;21.16;32.11;94161.19;6232704;28;110199;-64
2023/03/28 03:33:17;;;;;;;2.53;2.20;;;;;;;21.17;31.93;94176.06;6225667;28;109509;-64
2023/03/28 03:36:23;;;;;;;2.77;2.57;;;;;;;21.19;32.33;94164.03;6238371;28;110309;-63
2023/03/28 03:39:34;;;;;;;2.70;2.50;;;;;;;21.29;32.30;94173.50;6231746;28;109098;-65
2023/03/28 03:42:43;;;;;;;2.50;2.30;;;;;;;21.31;32.05;94189.13;6225426;28;109195;-64
2023/03/28 03:45:50;;;;;;;2.63;2.43;;;;;;;21.32;32.21;94183.50;6220851;27;109050;-63
2023/03/28 03:48:54;;;;;;;2.63;2.43;;;;;;;21.31;32.07;94200.56;6238008;27;109215;-62
2023/03/28 03:52:02;;;;;;;2.40;2.20;;;;;;;21.30;32.14;94195.56;6232804;27;109005;-62
2023/03/28 03:55:09;;;;;;;3.23;2.10;;;;;;;21.28;32.01;94211.84;6226539;27;109008;-62
2023/03/28 03:58:17;;;;;;;5.37;2.33;;;;;;;21.35;32.76;94220.13;6237380;27;109044;-64
2023/03/28 04:01:30;;;;;;;5.83;2.40;;;;;;;21.38;32.59;94216.81;6235319;28;109019;-63
2023/03/28 04:04:39;;;;;;;2.00;1.90;;;;;;;21.40;32.99;94257.19;6233738;27;109750;-65
2023/03/28 04:07:44;;;;;;;8.10;2.20;;;;;;;21.41;33.00;94234.81;6234987;27;109348;-64
2023/03/28 04:10:53;;;;;;;6.30;2.43;;;;;;;21.37;32.58;94219.81;6234454;28;109050;-64
2023/03/28 04:14:03;;;;;;;4.03;2.13;;;;;;;21.31;32.19;94237.81;6238918;27;109394;-62
2023/03/28 04:17:12;;;;;;;4.23;2.57;;;;;;;21.35;32.75;94245.97;6228791;27;110553;-61
2023/03/28 04:20:22;;;;;;;2.90;2.10;;;;;;;21.30;32.48;94246.13;6236419;28;109036;-64
2023/03/28 04:23:27;;;;;;;9.10;2.73;;;;;;;21.19;32.00;94256.34;6236969;28;109325;-64
2023/03/28 04:26:37;;;;;;;5.90;2.50;;;;;;;21.08;32.39;94247.16;6237581;28;110827;-62
2023/03/28 04:29:48;;;;;;;4.10;2.10;;;;;;;21.05;32.21;94261.88;6225862;28;109206;-62
2023/03/28 04:33:03;;;;;;;4.93;2.37;;;;;;;21.03;32.19;94268.59;6235487;28;109168;-63
2023/03/28 04:36:15;;;;;;;5.70;2.47;;;;;;;20.99;31.97;94275.63;6237109;28;111218;-64
2023/03/28 04:39:25;;;;;;;2.80;2.53;;;;;;;21.02;32.03;94283.75;6236929;28;108984;-63
2023/03/28 04:42:33;;;;;;;4.53;3.17;;;;;;;20.97;31.76;94283.13;6228380;28;109240;-62
2023/03/28 04:45:37;;;;;;;2.90;2.47;;;;;;;20.93;31.78;94294.41;6237241;28;109256;-65
2023/03/28 04:48:48;;;;;;;2.80;2.20;;;;;;;20.92;31.96;94316.78;6236578;28;108979;-62
2023/03/28 04:52:02;;;;;;;6.47;2.60;;;;;;;20.91;31.61;94331.19;6226043;27;110874;-63
2023/03/28 04:55:12;;;;;;;3.07;2.60;;;;;;;20.89;31.67;94320.06;6236919;28;108749;-62
2023/03/28 04:58:24;;;;;;;2.70;2.50;;;;;;;20.85;31.49;94324.47;6236653;28;109211;-62
2023/03/28 05:01:39;;;;;;;2.83;2.53;;;;;;;20.84;31.23;94328.22;6236622;28;108995;-64
2023/03/28 05:04:50;;;;;;;2.87;2.67;;;;;;;20.82;31.29;94337.59;6224630;27;110418;-64
2023/03/28 05:07:57;;;;;;;3.27;2.97;;;;;;;20.78;31.46;94336.66;6236592;28;109743;-64
2023/03/28 05:11:04;;;;;;;3.13;2.63;;;;;;;20.74;31.52;94344.50;6236900;28;108813;-64
2023/03/28 05:14:10;;;;;;;3.00;2.40;;;;;;;20.78;31.36;94332.13;6230748;27;109021;-63
2023/03/28 05:17:23;;;;;;;3.40;3.13;;;;;;;20.77;31.22;94346.50;6230971;28;109027;-64
2023/03/28 05:20:35;;;;;;;3.40;3.10;;;;;;;20.79;31.32;94351.53;6236410;28;109117;-63
2023/03/28 05:23:44;;;;;;;3.60;2.80;;;;;;;20.75;31.34;94356.69;6236446;28;109338;-63
2023/03/28 05:26:59;;;;;;;3.33;3.03;;;;;;;20.74;31.13;94357.00;6224686;28;112310;-64
2023/03/28 05:30:08;;;;;;;3.37;3.13;;;;;;;20.75;31.02;94359.34;6236191;28;109023;-64
2023/03/28 05:33:17;;;;;;;3.87;3.57;;;;;;;20.74;31.17;94368.41;6235602;28;109110;-64
2023/03/28 05:36:25;;;;;;;3.47;3.27;;;;;;;20.69;31.06;94370.47;6236004;28;108746;-64
2023/03/28 05:39:33;;;;;;;3.90;3.53;;;;;;;20.72;31.00;94378.59;6224440;27;109038;-63
2023/03/28 05:42:42;;;;;;;3.87;3.50;;;;;;;20.66;31.05;94381.69;6236047;28;109052;-63
2023/03/28 05:45:53;;;;;;;3.83;3.53;;;;;;;20.68;30.93;94390.16;6236085;28;109956;-64
2023/03/28 05:49:03;;;;;;;4.50;3.87;;;;;;;20.70;30.78;94396.72;6224959;27;109110;-64
2023/03/28 05:52:13;;;;;;;4.30;4.00;;;;;;;20.74;31.01;94387.03;6235419;28;109737;-64
2023/03/28 05:55:21;;;;;;;4.80;4.40;;;;;;;20.77;30.78;94386.41;6234976;28;108607;-63
2023/03/28 05:58:33;;;;;;;7.30;4.00;;;;;;;20.74;30.99;94381.72;6235048;28;109067;-64
2023/03/28 06:01:44;;;;;;;3.93;3.60;;;;;;;20.78;30.81;94392.50;6223948;27;110172;-63
2023/03/28 06:04:56;;;;;;;3.97;3.67;;;;;;;20.75;31.00;94388.59;6234462;28;109283;-70
2023/03/28 06:08:08;;;;;;;4.47;4.07;;;;;;;20.84;30.85;94396.59;6235568;28;108986;-72
2023/03/28 06:11:20;;;;;;;3.43;3.20;;;;;;;20.90;31.06;94401.41;6229813;28;113065;-70
2023/03/28 06:14:27;;;;;;;3.57;3.27;;;;;;;20.93;30.72;94406.09;6231827;28;111078;-71
2023/03/28 06:17:35;;;;;;;4.57;4.20;;;;;;;20.97;30.69;94414.22;6239600;28;108997;-71
2023/03/28 06:20:45;;;;;;;3.67;3.30;;;;;;;20.97;30.92;94422.22;6239722;28;109022;-71
2023/03/28 06:24:00;;;;;;;4.67;4.27;;;;;;;20.99;30.90;94416.59;6228491;27;109297;-72
2023/03/28 06:27:11;;;;;;;3.73;3.43;;;;;;;20.99;30.82;94416.59;6239647;28;111657;-71
2023/03/28 06:30:18;;;;;;;4.40;4.00;;;;;;;20.93;30.64;94418.63;6239339;28;109026;-72
2023/03/28 06:33:23;;;;;;;3.73;3.43;;;;;;;20.99;30.79;94441.31;6239543;28;111365;-71
2023/03/28 06:36:32;;;;;;;4.23;3.93;;;;;;;20.98;30.99;94453.03;6228215;27;111578;-71
2023/03/28 06:39:42;;;;;;;3.90;3.60;;;;;;;20.98;30.68;94450.38;6239497;28;108978;-71
2023/03/28 06:42:48;;;;;;;4.53;4.13;;;;;;;21.01;31.14;94446.34;6238818;28;109031;-70
2023/03/28 06:45:58;;;;;;;3.33;3.03;;;;;;;21.01;30.89;94430.38;6229369;27;111468;-70
2023/03/28 06:49:08;;;;;;;3.73;3.43;;;;;;;21.02;30.65;94445.25;6238945;28;111877;-70
2023/03/28 06:52:17;;;;;;;3.90;3.60;;;;;;;21.00;30.71;94445.53;6238143;28;109155;-71
2023/03/28 06:55:31;;;;;;;4.20;3.90;;;;;;;21.02;30.75;94459.31;6239295;28;108629;-71
2023/03/28 06:58:43;;;;;;;3.90;3.60;;;;;;;21.03;30.73;94462.75;6227305;28;109260;-65
2023/03/28 07:01:50;;;;;;;4.10;3.70;;;;;;;21.04;31.14;94466.97;6238064;28;109001;-68
2023/03/28 07:05:01;;;;;;;3.20;3.00;;;;;;;21.01;30.70;94475.59;6237782;28;109531;-67
2023/03/28 07:08:12;;;;;;;3.70;3.40;;;;;;;20.99;30.93;94481.19;6233659;28;112227;-67
2023/03/28 07:11:22;;;;;;;3.80;3.50;;;;;;;21.00;30.69;94487.31;6232860;28;108887;-68
2023/03/28 07:14:35;;;;;;;3.50;3.20;;;;;;;21.00;30.98;94495.28;6238419;28;109266;-67
2023/03/28 07:17:44;;;;;;;3.20;3.00;;;;;;;20.98;30.75;94484.97;6238282;28;109030;-68
2023/03/28 07:20:53;;;;;;;3.40;3.00;;;;;;;20.99;30.72;94501.69;6225409;27;109886;-68
2023/03/28 07:24:12;;;;;;;3.67;3.37;;;;;;;21.00;30.33;94492.63;6238930;27;109433;-68
2023/03/28 07:27:19;;;;;;;3.13;2.93;;;;;;;21.01;30.52;94499.53;6237371;28;109026;-68
2023/03/28 07:30:28;;;;;;;3.30;3.10;;;;;;;21.05;30.56;94493.31;6237434;28;109050;-67
2023/03/28 07:33:35;;;;;;;3.30;2.83;;;;;;;21.11;30.88;94486.72;6227242;27;111044;-67
2023/03/28 07:36:42;;;;;;;3.17;2.97;;;;;;;21.18;30.82;94507.56;6237388;28;109053;-67
2023/03/28 07:39:49;;;;;;;3.20;3.00;;;;;;;21.17;30.76;94495.31;6237899;28;109023;-66
2023/03/28 07:42:57;;;;;;;3.03;2.80;;;;;;;21.18;30.79;94515.53;6231232;27;109067;-66
2023/03/28 07:46:05;;;;;;;2.73;2.53;;;;;;;21.17;30.66;94514.75;6236575;28;110539;-67
2023/03/28 07:49:10;;;;;;;3.00;2.80;;;;;;;21.17;30.94;94522.75;6238057;28;109157;-67
2023/03/28 07:52:19;;;;;;;2.70;2.50;;;;;;;21.15;30.88;94527.56;6237951;28;109246;-66
2023/03/28 07:55:26;;;;;;;2.93;2.73;;;;;;;21.14;30.94;94538.53;6226420;27;111255;-67
2023/03/28 07:58:34;;;;;;;2.93;2.73;;;;;;;21.13;30.74;94539.63;6237544;28;109165;-67
2023/03/28 08:01:40;;;;;;;3.10;2.90;;;;;;;21.11;30.52;94536.47;6237160;28;108990;-68
2023/03/28 08:04:48;;;;;;;2.77;2.57;;;;;;;21.10;30.63;94532.25;6236582;28;109367;-67
2023/03/28 08:07:55;;;;;;;2.97;2.73;;;;;;;21.08;30.48;94534.44;6226339;28;109011;-68
2023/03/28 08:11:03;;;;;;;3.37;3.17;;;;;;;21.08;30.47;94531.78;6237974;28;109069;-67
2023/03/28 08:14:14;;;;;;;2.67;2.47;;;;;;;21.06;30.47;94531.31;6237330;28;108999;-66
2023/03/28 08:17:20;;;;;;;2.63;2.43;;;;;;;21.05;30.46;94535.88;6226099;28;109433;-65
2023/03/28 08:20:26;;;;;;;2.30;2.20;;;;;;;21.05;30.57;94529.75;6236655;28;109160;-67
2023/03/28 08:23:35;;;;;;;2.90;2.70;;;;;;;21.04;30.49;94546.78;6237255;28;109040;-68
2023/03/28 08:26:40;;;;;;;2.80;2.60;;;;;;;21.05;30.42;94551.03;6237637;28;109773;-67
2023/03/28 08:29:47;;;;;;;2.63;2.50;;;;;;;21.04;30.50;94557.44;6226050;27;110186;-68
2023/03/28 08:32:53;;;;;;;3.20;2.90;;;;;;;21.03;30.55;94569.94;6237303;28;109026;-68
2023/03/28 08:35:58;;;;;;;2.73;2.53;;;;;;;21.02;30.67;94575.56;6236759;27;111926;-68
2023/03/28 08:39:05;;;;;;;2.63;2.30;;;;;;;21.01;30.70;94569.47;6236771;28;108963;-67
2023/03/28 08:42:39;;;;;;;3.03;2.83;;;;;;;21.02;30.47;94586.22;6225214;28;109623;-68
2023/03/28 08:45:51;;;;;;;2.43;2.23;;;;;;;21.04;30.23;94576.06;6236652;28;109199;-66
2023/03/28 08:48:59;;;;;;;2.77;2.57;;;;;;;21.03;30.46;94580.59;6236699;28;110056;-67
2023/03/28 08:52:06;;;;;;;2.50;2.30;;;;;;;21.04;30.34;94589.34;6225054;28;108976;-66
2023/03/28 08:55:26;;;;;;;2.33;2.13;;;;;;;21.02;30.66;94578.25;6236606;28;109036;-67
2023/03/28 08:58:39;;;;;;;3.03;2.83;;;;;;;21.04;30.42;94586.69;6236649;28;108998;-67
2023/03/28 09:01:50;;;;;;;2.37;2.27;;;;;;;21.05;30.58;94583.75;6237192;28;108546;-66
2023/03/28 09:05:00;;;;;;;2.67;2.47;;;;;;;21.02;30.39;94583.56;6224778;28;109962;-67
2023/03/28 09:08:53;;;;;;;2.97;2.77;;;;;;;21.09;30.47;94575.94;6235966;28;108800;-67
2023/03/28 09:12:06;;;;;;;3.00;2.53;;;;;;;21.13;30.37;94588.28;6236587;28;109090;-67
2023/03/28 09:15:37;;;;;;;2.57;2.37;;;;;;;21.13;30.39;94598.94;6224682;28;110622;-67
2023/03/28 09:19:11;;;;;;;2.80;2.40;;;;;;;21.14;30.71;94603.16;6236252;28;109083;-68
2023/03/28 09:22:26;;;;;;;2.40;2.20;;;;;;;21.18;30.42;94606.78;6236683;28;109330;-67
2023/03/28 09:25:42;;;;;;;2.43;2.23;;;;;;;21.17;30.12;94607.88;6227932;27;109096;-67
2023/03/28 09:28:52;;;;;;;2.37;2.17;;;;;;;21.19;30.35;94613.66;6235520;28;108986;-65
2023/03/28 09:32:02;;;;;;;2.83;2.63;;;;;;;21.19;30.55;94618.22;6235700;28;108725;-68
2023/03/28 09:35:17;;;;;;;2.57;2.37;;;;;;;21.18;30.43;94614.00;6234820;28;109441;-68
2023/03/28 09:38:26;;;;;;;3.90;3.60;;;;;;;21.19;30.48;94620.88;6223758;28;109190;-67
2023/03/28 09:41:45;;;;;;;2.53;2.43;;;;;;;21.19;30.49;94615.56;6235762;28;109319;-67
2023/03/28 09:44:59;;;;;;;4.53;4.23;;;;;;;21.18;30.26;94629.94;6235884;28;109139;-68
2023/03/28 09:48:07;;;;;;;2.60;2.40;;;;;;;21.16;30.59;94608.16;6231428;27;109086;-66
2023/03/28 09:51:17;;;;;;;2.97;2.70;;;;;;;21.17;30.16;94621.19;6235822;28;110957;-67
2023/03/28 09:54:29;;;;;;;2.77;2.57;;;;;;;21.18;30.51;94614.78;6240067;28;109032;-67
2023/03/28 09:58:06;;;;;;;2.73;2.53;;;;;;;21.20;30.24;94622.44;6239993;28;108967;-68
2023/03/28 10:01:25;;;;;;;2.53;2.33;;;;;;;21.18;30.34;94620.09;6229143;27;111775;-69
2023/03/28 10:04:38;;;;;;;2.80;2.60;;;;;;;21.20;30.31;94620.56;6239450;28;110055;-67
2023/03/28 10:07:47;;;;;;;2.63;2.43;;;;;;;21.20;30.46;94627.75;6240733;28;109674;-67
2023/03/28 10:11:02;;;;;;;2.30;2.03;;;;;;;21.19;30.03;94613.66;6234683;28;111466;-66
2023/03/28 10:14:29;;;;;;;2.37;2.27;;;;;;;21.19;30.31;94608.34;6234818;28;109040;-68
2023/03/28 10:17:37;;;;;;;2.40;2.30;;;;;;;21.22;30.15;94606.94;6239808;28;109366;-67
2023/03/28 10:20:44;;;;;;;2.30;2.20;;;;;;;21.24;30.41;94602.09;6239615;28;109085;-68
2023/03/28 10:23:56;;;;;;;2.30;2.10;;;;;;;21.24;30.75;94599.44;6228449;27;110081;-67
2023/03/28 10:27:15;;;;;;;2.40;2.20;;;;;;;21.25;30.22;94610.84;6239574;28;110085;-69
2023/03/28 10:30:24;;;;;;;2.00;1.90;;;;;;;21.27;30.47;94606.78;6239540;28;109141;-66
2023/03/28 10:33:35;;;;;;;2.40;2.20;;;;;;;21.27;30.48;94617.44;6234428;28;109042;-67
2023/03/28 10:36:43;;;;;;;2.20;2.00;;;;;;;21.26;30.46;94623.84;6234004;27;111922;-68
2023/03/28 10:39:59;;;;;;;2.07;1.97;;;;;;;21.25;30.22;94608.97;6239198;28;109593;-68
2023/03/28 10:43:12;;;;;;;2.43;2.23;;;;;;;21.27;30.42;94617.44;6239236;28;109630;-68
2023/03/28 10:46:21;;;;;;;2.47;2.20;;;;;;;21.29;30.33;94628.53;6227652;27;109015;-67
2023/03/28 10:49:29;;;;;;;2.40;2.20;;;;;;;21.27;30.52;94636.06;6239093;28;108801;-68
2023/03/28 10:52:46;;;;;;;1.90;1.80;;;;;;;21.27;30.21;94644.03;6238706;28;109126;-68
2023/03/28 10:56:06;;;;;;;2.23;2.10;;;;;;;21.25;30.45;94661.41;6239053;28;108982;-67
2023/03/28 10:59:39;;;;;;;2.30;2.20;;;;;;;21.26;30.17;94655.78;6230420;27;110118;-68
2023/03/28 11:02:58;;;;;;;2.70;2.50;;;;;;;21.25;30.38;94637.47;6239169;28;109205;-67
2023/03/28 11:06:13;;;;;;;2.70;2.50;;;;;;;21.27;30.34;94633.41;6213971;28;109059;-68
2023/03/28 11:09:27;;;;;;;2.13;2.03;;;;;;;21.29;30.19;94633.88;6202315;28;109671;-68
2023/03/28 11:12:51;;;;;;;2.00;1.90;;;;;;;21.29;30.36;94636.53;6213983;28;109977;-68
2023/03/28 11:16:07;;;;;;;2.70;2.50;;;;;;;21.28;30.20;94632.31;6213614;28;109109;-68
2023/03/28 11:19:22;;;;;;;2.50;2.30;;;;;;;21.26;30.29;94634.50;6207855;28;109225;-67
2023/03/28 11:22:41;;;;;;;2.27;2.17;;;;;;;21.26;30.27;94629.16;6207718;28;109219;-68
2023/03/28 11:26:02;;;;;;;2.23;2.13;;;;;;;21.29;30.48;94628.53;6213213;28;108801;-68
2023/03/28 11:29:23;;;;;;;2.67;2.20;;;;;;;21.30;30.37;94632.78;6213367;28;110154;-68
2023/03/28 11:32:51;;;;;;;2.30;2.20;;;;;;;21.31;30.40;94630.91;6202276;28;111432;-68
2023/03/28 11:36:00;;;;;;;2.37;2.17;;;;;;;21.30;30.43;94638.09;6212951;28;109122;-68
2023/03/28 11:39:14;;;;;;;2.60;2.40;;;;;;;21.29;30.52;94633.09;6213162;28;109074;-67
2023/03/28 11:42:28;;;;;;;2.17;2.07;;;;;;;21.29;30.25;94635.75;6207962;28;109040;-67
2023/03/28 11:45:40;;;;;;;2.43;2.23;;;;;;;21.27;30.45;94630.75;6212089;28;109283;-68
2023/03/28 11:49:02;;;;;;;2.53;2.33;;;;;;;21.26;30.29;94623.06;6212967;28;109475;-68
2023/03/28 11:52:15;;;;;;;2.70;2.47;;;;;;;21.27;30.63;94630.75;6212901;28;109954;-68
2023/03/28 11:55:25;;;;;;;2.23;2.03;;;;;;;21.27;30.67;94645.91;6201588;28;109362;-68
2023/03/28 11:58:37;;;;;;;2.30;2.10;;;;;;;21.26;30.25;94647.00;6213086;28;109093;-68
2023/03/28 12:01:52;;;;;;;2.90;2.70;;;;;;;21.28;30.43;94631.53;6214394;28;108717;-67
2023/03/28 12:05:02;;;;;;;2.10;2.00;;;;;;;21.25;30.52;94632.94;6223960;28;108917;-66
2023/03/28 12:08:12;;;;;;;2.80;2.60;;;;;;;21.25;30.59;94624.16;6232129;28;109245;-67
2023/03/28 12:11:26;;;;;;;2.60;2.40;;;;;;;21.26;30.50;94639.03;6236968;28;109536;-67
2023/03/28 12:14:43;;;;;;;2.50;2.30;;;;;;;21.24;30.27;94650.00;6237662;28;109041;-67
2023/03/28 12:17:55;;;;;;;2.30;2.17;;;;;;;21.24;30.54;94673.94;6226456;28;109398;-67
2023/03/28 12:21:07;;;;;;;2.50;2.30;;;;;;;21.23;30.75;94658.28;6237193;28;109119;-66
2023/03/28 12:24:23;;;;;;;2.40;2.20;;;;;;;21.24;30.40;94644.66;6236998;28;109004;-68
2023/03/28 12:27:41;;;;;;;2.50;2.30;;;;;;;21.25;30.04;94656.88;6231604;28;111632;-66
2023/03/28 12:30:55;;;;;;;2.33;2.23;;;;;;;21.24;30.36;94665.19;6231256;27;109401;-67
2023/03/28 12:34:11;;;;;;;2.20;2.10;;;;;;;21.24;30.53;94665.19;6237495;28;111860;-66
2023/03/28 12:37:21;;;;;;;2.63;2.43;;;;;;;21.24;30.31;94662.50;6237015;28;109160;-69
2023/03/28 12:40:36;;;;;;;2.20;2.10;;;;;;;21.21;30.48;94648.75;6226187;27;108825;-68
2023/03/28 12:43:47;;;;;;;3.00;2.77;;;;;;;21.21;30.39;94663.91;6236878;28;109498;-67
2023/03/28 12:46:56;;;;;;;2.57;2.37;;;;;;;21.19;30.48;94650.16;6237133;28;109061;-67
2023/03/28 12:50:07;;;;;;;2.20;2.10;;;;;;;21.18;30.20;94665.31;6236837;28;109532;-67
2023/03/28 12:53:14;;;;;;;2.50;2.30;;;;;;;21.19;30.37;94660.78;6230852;28;111518;-68
2023/03/28 12:56:22;;;;;;;2.43;2.23;;;;;;;21.18;30.43;94672.53;6237015;28;109125;-67
2023/03/28 12:59:44;;;;;;;2.30;2.20;;;;;;;21.19;30.62;94666.09;6237109;28;108615;-68
2023/03/28 13:02:57;;;;;;;2.37;2.27;;;;;;;21.18;30.41;94667.97;6225566;28;109270;-67
2023/03/28 13:06:15;;;;;;;2.40;2.20;;;;;;;21.18;30.62;94681.28;6236861;28;109152;-67
2023/03/28 13:09:45;;;;;;;2.60;2.40;;;;;;;21.16;30.63;94672.81;6236903;28;110197;-66
2023/03/28 13:13:02;;;;;;;2.10;2.00;;;;;;;21.17;30.66;94677.06;6235776;28;108972;-67
2023/03/28 13:16:14;;;;;;;2.40;2.27;;;;;;;21.17;30.32;94678.91;6229999;28;109032;-66
2023/03/28 13:19:19;;;;;;;2.13;2.03;;;;;;;21.15;30.46;94689.06;6236453;28;108783;-67
2023/03/28 13:22:32;;;;;;;2.40;2.20;;;;;;;21.17;30.41;94685.03;6236526;27;109085;-69
2023/03/28 13:25:37;;;;;;;1.90;1.80;;;;;;;21.15;30.52;94687.19;6230172;27;109278;-68
2023/03/28 13:28:45;;;;;;;1.93;1.83;;;;;;;21.16;30.48;94682.66;6240854;28;111849;-68
2023/03/28 13:31:51;;;;;;;2.60;2.40;;;;;;;21.16;30.44;94695.97;6240692;28;109338;-67
2023/03/28 13:35:02;;;;;;;2.20;2.10;;;;;;;21.13;30.35;94697.38;6240744;28;110156;-68
2023/03/28 13:38:34;;;;;;;2.20;2.10;;;;;;;21.12;30.58;94703.78;6229136;27;109498;-68
2023/03/28 13:42:01;;;;;;;1.97;1.87;;;;;;;21.14;30.38;94703.47;6240476;28;109030;-67
2023/03/28 13:45:16;;;;;;;2.33;2.13;;;;;;;21.14;30.40;94701.59;6240135;28;109427;-68
2023/03/28 13:48:25;;;;;;;2.53;2.33;;;;;;;21.13;30.46;94700.03;6229040;27;111007;-66
2023/03/28 13:51:38;;;;;;;3.90;2.60;;;;;;;21.12;30.37;94717.09;6240503;28;109076;-68
2023/03/28 13:54:52;;;;;;;2.27;2.07;;;;;;;21.12;30.10;94705.66;6240198;28;109369;-68
2023/03/28 13:58:02;;;;;;;2.30;2.10;;;;;;;21.11;30.40;94701.44;6240311;28;109145;-67
2023/03/28 14:01:08;;;;;;;2.10;2.00;;;;;;;21.10;30.12;94700.66;6227870;27;109220;-67
2023/03/28 14:04:19;;;;;;;2.80;2.60;;;;;;;21.11;30.53;94720.84;6239046;28;109119;-67
2023/03/28 14:07:28;;;;;;;1.93;1.83;;;;;;;21.11;30.42;94726.16;6240448;28;108705;-71
2023/03/28 14:10:39;;;;;;;2.50;2.30;;;;;;;21.10;30.42;94723.81;6231655;28;109759;-67
2023/03/28 14:13:46;;;;;;;1.90;1.80;;;;;;;21.09;30.52;94711.59;6238303;28;109115;-67
2023/03/28 14:16:53;;;;;;;2.10;2.00;;;;;;;21.11;30.27;94722.72;6239754;28;108899;-67
2023/03/28 14:20:03;;;;;;;2.20;2.10;;;;;;;21.11;30.31;94734.16;6240195;28;109157;-68
2023/03/28 14:23:28;;;;;;;2.17;1.97;;;;;;;21.10;30.43;94721.94;6228925;27;109454;-67
2023/03/28 14:26:40;;;;;;;1.97;1.87;;;;;;;21.09;30.06;94719.59;6238602;28;109351;-67
2023/03/28 14:29:53;;;;;;;1.83;1.73;;;;;;;21.08;30.01;94728.66;6238933;28;109624;-68
2023/03/28 14:33:06;;;;;;;2.07;1.97;;;;;;;21.06;30.15;94728.19;6233730;27;109137;-66
2023/03/28 14:36:12;;;;;;;2.23;2.10;;;;;;;21.10;30.12;94726.47;6232487;27;109046;-67
2023/03/28 14:39:20;;;;;;;2.00;1.90;;;;;;;21.09;30.03;94743.53;6239490;28;108825;-66
2023/03/28 14:42:30;;;;;;;2.80;1.90;;;;;;;21.10;29.91;94740.56;6239276;28;109301;-67
2023/03/28 14:45:38;;;;;;;1.80;1.70;;;;;;;21.08;30.26;94750.72;6227547;27;109675;-66
2023/03/28 14:48:45;;;;;;;2.37;2.13;;;;;;;21.07;30.00;94743.06;6239572;28;108713;-67
2023/03/28 14:51:55;;;;;;;2.13;1.77;;;;;;;21.06;30.16;94762.78;6231165;28;108875;-67